• Join FlightAware (Why Join?)
  • Login
  • US Flag 
03:43AM EDT


 

Airport Tracker/Info


-or-


 

Live Flight TrackerFlight Track Log ✈ SWA183 ✈ 04-Oct-2013 ✈ KSNA - KSMF

Flight Track Log - Related Links

Times and Time Zones

All times are in EDT time to prevent confusion due to time zone crossing. See the SWA183 flight status page for this flight to view local times or setup timezone preferences in your user account.

Time Position Orientation Groundspeed Altitude Reporting Facility
EDT Latitude Longitude Course Direction KTS MPH feet Rate Location/Type
12:52AM 33.6890 -117.8610 23° Northeast 129 148 1,400  Level FlightAware
12:52AM 33.7060 -117.8530 21° North 181 208 2,400 2,400 Climbing FlightAware
12:52AM 33.7240 -117.8430 25° Northeast 215 247 3,300 2,520 Climbing FlightAware
12:52AM 33.7290 -117.8370 45° Northeast 224 258 3,600 3,300 Climbing FlightAware
12:53AM 33.7350 -117.8220 64° Northeast 233 268 4,400 3,540 Climbing FlightAware
12:53AM 33.7370 -117.8110 78° East 240 276 4,900 2,640 Climbing FlightAware
12:53AM 33.7280 -117.7850 113° Southeast 267 307 5,700 2,460 Climbing FlightAware
12:53AM 33.7240 -117.7800 134° Southeast 272 313 5,900 4,140 Climbing FlightAware
12:53AM 33.7160 -117.7710 137° Southeast 273 314 6,600 4,560 Climbing FlightAware
12:53AM 33.7070 -117.7640 147° Southeast 279 321 7,200 3,960 Climbing FlightAware
12:54AM 33.6990 -117.7610 163° South 283 326 7,600 3,480 Climbing FlightAware
12:54AM 33.6920 -117.7610 180° South 287 330 7,900 3,840 Climbing FlightAware
12:54AM 33.6590 -117.7830 209° Southwest 307 353 9,800 3,180 Climbing FlightAware
12:55AM 33.6230 -117.8290 227° Southwest 349 402 11,300 3,120 Climbing FlightAware
12:55AM 33.5840 -117.8730 223° Southwest 354 407 13,300 3,360 Climbing FlightAware
12:56AM 33.5370 -117.9270 224° Southwest 376 433 15,300 3,240 Climbing FlightAware
12:56AM 33.4970 -117.9770 226° Southwest 378 435 17,200 3,120 Climbing FlightAware
12:57AM 33.4590 -118.0280 228° Southwest 394 453 18,700 2,700 Climbing FlightAware
12:58AM 33.4110 -118.0940 229° Southwest 406 467 20,500 3,000 Climbing FlightAware
12:58AM 33.3670 -118.1550 229° Southwest 404 465 22,500 3,300 Climbing FlightAware
12:58AM 33.3570 -118.1780 243° Southwest 400 460 23,100 3,000 Climbing FlightAware
12:59AM 33.3510 -118.2140 259° West 396 456 23,900 2,460 Climbing FlightAware
12:59AM 33.3540 -118.2550 275° West 394 453 24,800 2,820 Climbing FlightAware
01:00AM 33.3670 -118.3420 280° West 397 457 26,700 3,000 Climbing FlightAware
01:00AM 33.3830 -118.3740 301° West 400 460 27,400 2,340 Climbing FlightAware
01:00AM 33.3960 -118.3920 311° West 404 465 27,800 2,340 Climbing FlightAware
01:00AM 33.4240 -118.4120 329° Northwest 414 476 28,500 2,100 Climbing FlightAware
01:01AM 33.4440 -118.4200 342° North 421 484 28,800 1,920 Climbing FlightAware
01:01AM 33.4780 -118.4230 356° North 432 497 29,400 1,920 Climbing FlightAware
01:01AM 33.5450 -118.4240 359° North 442 509 30,400 1,740 Climbing FlightAware
01:02AM 33.6160 -118.4260 359° North 449 517 31,400 2,160 Climbing FlightAware
01:03AM 33.6930 -118.4270 359° North 442 509 33,000 2,520 Climbing FlightAware
01:03AM 33.7590 -118.4290 359° North 437 503 34,300 2,160 Climbing FlightAware
01:04AM 33.8310 -118.4300 359° North 435 501 35,500 1,800 Climbing FlightAware
01:04AM 33.9060 -118.4330 358° North 434 499 36,500 1,500 Climbing FlightAware
01:05AM 33.9600 -118.4460 349° North 424 488 37,200 1,620 Climbing FlightAware
01:05AM 34.0200 -118.4750 338° Northwest 417 480 38,200 1,860 Climbing FlightAware
01:06AM 34.0820 -118.5050 338° Northwest 410 472 39,300 1,500 Climbing FlightAware
01:07AM 34.1460 -118.5360 338° Northwest 410 472 40,000 540 Climbing FlightAware
01:07AM 34.2080 -118.5670 338° Northwest 413 475 40,000  Level FlightAware
01:08AM 34.2650 -118.5950 338° Northwest 413 475 40,000  Level FlightAware
01:08AM 34.3300 -118.6270 338° Northwest 413 475 40,000  Level FlightAware
01:09AM 34.3890 -118.6540 339° North 415 478 40,000  Level FlightAware
01:10AM 34.4540 -118.6830 340° North 415 478 40,000 -300 Level FlightAware
01:10AM 34.5220 -118.7130 340° North 415 478 39,700 -660 Descending FlightAware
01:11AM 34.5910 -118.7450 339° North 406 467 39,100 -960 Descending FlightAware
01:12AM 34.6660 -118.7780 340° North 409 471 38,400 -1,020 Descending FlightAware
01:12AM 34.7260 -118.8060 339° North 413 475 38,000 -360 Descending FlightAware
01:13AM 34.7920 -118.8360 340° North 413 475 38,000  Level FlightAware
01:13AM 34.8530 -118.8640 339° North 413 475 38,000  Level FlightAware
01:14AM 34.9210 -118.8950 340° North 412 474 38,000  Level FlightAware
01:14AM 34.9770 -118.9200 340° North 411 473 38,000  Level FlightAware
01:15AM 35.0440 -118.9510 339° North 410 472 38,000  Level FlightAware
01:16AM 35.0980 -118.9760 339° North 410 472 38,000  Level FlightAware
01:16AM 35.1800 -119.0140 339° North 410 472 38,000  Level FlightAware
01:17AM 35.2350 -119.0400 339° North 410 472 38,000  Level FlightAware
01:18AM 35.1830 -119.0150 159° South 410 472 38,000  Level FlightAware
01:18AM 35.2370 -119.0400 339° North 410 472 38,000  Level FlightAware
01:19AM 35.4670 -119.1460 339° North 411 473 38,000  Level FlightAware
01:20AM 35.5300 -119.1750 339° North 411 473 38,000  Level FlightAware
01:20AM 35.5940 -119.2050 339° North 412 474 38,000  Level FlightAware
01:21AM 35.6510 -119.2310 340° North 411 473 38,000  Level FlightAware
01:21AM 35.7160 -119.2610 339° North 412 474 38,000  Level FlightAware
01:22AM 35.7750 -119.2890 339° North 412 474 38,000  Level FlightAware
01:23AM 35.8440 -119.3210 339° North 412 474 38,000  Level FlightAware
01:23AM 35.9060 -119.3510 339° North 413 475 38,000  Level FlightAware
01:24AM 35.9610 -119.3760 340° North 413 475 38,000  Level FlightAware
01:24AM 36.0310 -119.4090 339° North 414 476 38,000  Level FlightAware
01:25AM 36.0910 -119.4440 335° Northwest 410 472 38,000  Level FlightAware
01:25AM 36.1460 -119.4800 332° Northwest 408 470 38,000  Level FlightAware
01:26AM 36.2050 -119.5200 331° Northwest 408 470 38,000  Level FlightAware
01:27AM 36.2650 -119.5600 332° Northwest 407 468 38,000  Level FlightAware
01:27AM 36.3240 -119.6000 331° Northwest 408 470 38,000  Level FlightAware
01:28AM 36.3790 -119.6370 332° Northwest 409 471 38,000  Level FlightAware
01:28AM 36.4410 -119.6780 332° Northwest 410 472 38,000  Level FlightAware
01:29AM 36.4950 -119.7150 331° Northwest 411 473 38,000 -480 Level FlightAware
01:29AM 36.5540 -119.7550 331° Northwest 406 467 37,500 -840 Descending FlightAware
01:30AM 36.6150 -119.7950 332° Northwest 402 463 37,000 -420 Descending FlightAware
01:31AM 36.6730 -119.8350 331° Northwest 400 460 37,000  Level FlightAware
01:31AM 36.7250 -119.8700 332° Northwest 400 460 37,000  Level FlightAware
01:32AM 36.7830 -119.9100 331° Northwest 401 461 37,000  Level FlightAware
01:32AM 36.8410 -119.9490 332° Northwest 402 463 37,000 -300 Level FlightAware
01:33AM 36.9010 -119.9900 331° Northwest 402 463 36,700 -1,440 Descending FlightAware
01:34AM 36.9540 -120.0260 332° Northwest 403 464 35,400 -2,580 Descending FlightAware
01:34AM 37.0110 -120.0650 331° Northwest 403 464 33,800 -2,580 Descending FlightAware
01:35AM 37.0650 -120.1020 331° Northwest 396 456 32,500 -2,340 Descending FlightAware
01:35AM 37.1200 -120.1400 331° Northwest 390 449 31,200 -2,280 Descending FlightAware
01:36AM 37.1780 -120.1800 331° Northwest 383 441 29,800 -2,340 Descending FlightAware
01:36AM 37.2320 -120.2170 331° Northwest 377 434 28,500 -2,220 Descending FlightAware
01:37AM 37.2890 -120.2560 331° Northwest 370 426 27,200 -2,100 Descending FlightAware
01:38AM 37.3400 -120.2910 331° Northwest 364 419 26,000 -2,160 Descending FlightAware
01:38AM 37.3920 -120.3280 331° Northwest 359 413 24,700 -1,800 Descending FlightAware
01:39AM 37.4370 -120.3610 330° Northwest 357 411 24,000 -1,080 Descending FlightAware
01:39AM 37.4870 -120.4110 322° Northwest 358 412 23,500 -900 Descending FlightAware
01:40AM 37.5330 -120.4570 322° Northwest 354 407 22,900 -1,020 Descending FlightAware
01:41AM 37.5750 -120.4990 322° Northwest 350 403 22,400 -1,020 Descending FlightAware
01:41AM 37.6190 -120.5430 322° Northwest 348 400 21,800 -1,020 Descending FlightAware
01:42AM 37.6650 -120.5890 322° Northwest 344 396 21,200 -1,080 Descending FlightAware
01:42AM 37.7070 -120.6320 321° Northwest 342 394 20,600 -1,020 Descending FlightAware
01:43AM 37.7470 -120.6720 322° Northwest 340 391 20,100 -1,020 Descending FlightAware
01:43AM 37.7910 -120.7160 322° Northwest 338 389 19,500 -1,020 Descending FlightAware
01:44AM 37.8350 -120.7600 322° Northwest 341 392 18,900 -1,020 Descending FlightAware
01:45AM 37.8820 -120.8080 321° Northwest 342 394 18,300 -1,080 Descending FlightAware
01:45AM 37.9210 -120.8480 321° Northwest 337 388 17,700 -1,200 Descending FlightAware
01:46AM 37.9650 -120.8930 321° Northwest 332 382 17,000 -1,500 Descending FlightAware
01:46AM 38.0080 -120.9350 322° Northwest 327 376 15,900 -1,920 Descending FlightAware
01:47AM 38.0500 -120.9790 320° Northwest 324 373 14,700 -1,980 Descending FlightAware
01:48AM 38.0850 -121.0190 318° Northwest 323 372 13,700 -1,860 Descending FlightAware
01:48AM 38.1200 -121.0710 311° West 319 367 12,600 -1,800 Descending FlightAware
01:49AM 38.1540 -121.1210 311° West 314 361 11,600 -1,800 Descending FlightAware
01:49AM 38.1850 -121.1670 311° West 312 359 10,600 -1,620 Descending FlightAware
01:50AM 38.2120 -121.2060 311° West 300 345 10,000 -1,020 Descending FlightAware
01:50AM 38.2320 -121.2360 310° West 285 328 9,700 -1,140 Descending FlightAware
01:51AM 38.2500 -121.2630 310° West 283 326 9,200 -1,500 Descending FlightAware
01:51AM 38.2670 -121.2880 311° West 282 325 8,700 -1,500 Descending FlightAware
01:51AM 38.2840 -121.3130 311° West 281 323 8,200 -1,500 Descending FlightAware
01:52AM 38.3040 -121.3440 309° West 280 322 7,600 -1,440 Descending FlightAware
01:52AM 38.3200 -121.3660 313° West 277 319 7,200 -1,380 Descending FlightAware
01:52AM 38.3380 -121.3930 310° West 275 316 6,700 -1,440 Descending FlightAware
01:53AM 38.3540 -121.4180 309° West 273 314 6,200 -1,440 Descending FlightAware
01:53AM 38.3720 -121.4440 311° West 268 308 5,700 -1,380 Descending FlightAware
01:53AM 38.3890 -121.4700 310° West 257 296 5,200 -1,260 Descending FlightAware
01:54AM 38.3980 -121.4840 309° West 253 291 5,000 -1,020 Descending FlightAware
01:54AM 38.4170 -121.5120 311° West 246 283 4,600 -840 Descending FlightAware
01:54AM 38.4310 -121.5320 312° West 236 272 4,400 -600 Descending FlightAware
01:55AM 38.4450 -121.5520 312° West 224 258 4,200 -600 Descending FlightAware
01:55AM 38.4610 -121.5700 319° Northwest 215 247 4,000 -600 Descending FlightAware
01:55AM 38.4750 -121.5850 320° Northwest 208 239 3,800 -600 Descending FlightAware
01:56AM 38.4930 -121.6020 324° Northwest 194 223 3,600 -660 Descending FlightAware
01:56AM 38.4970 -121.6040 339° North 193 222 3,500 -1,020 Descending FlightAware
01:56AM 38.5040 -121.6050 354° North 192 221 3,400 -1,020 Descending FlightAware
01:56AM 38.5290 -121.6040 North 192 221 2,900 -900 Descending FlightAware
01:57AM 38.5410 -121.6040 360° North 188 216 2,800 -960 Descending FlightAware
01:57AM 38.5620 -121.6030 North 184 212 2,300 -1,140 Descending FlightAware
01:57AM 38.5780 -121.6030 360° North 173 199 2,000 -900 Descending FlightAware
01:57AM 38.5850 -121.6030 360° North 168 193 1,900 -900 Descending FlightAware
01:58AM 38.6030 -121.6030 360° North 150 173 1,500 -840 Descending FlightAware
01:58AM 38.6170 -121.6030 360° North 133 153 1,300 -720 Descending FlightAware
01:58AM 38.6250 -121.6020 North 127 146 1,100 -840 Descending FlightAware
01:59AM 38.6380 -121.6020 360° North 119 137 800 -720 Descending FlightAware
01:59AM 38.6450 -121.6020 360° North 119 137 700 -600 Descending FlightAware
01:59AM 38.6600 -121.6020 360° North 119 137 400 -720 Descending FlightAware
02:00AM 38.6720 -121.6020 360° North 117 135 100 -660 Descending FlightAware
02:00AM 38.6760 -121.6020 360° North 120 138 100  Level FlightAware
02:00AM 38.6870 -121.6020 360° North 123 142 -300 Descending FlightAware